Time;durP1;ratioP1;P1;durP2;ratioP2;P2;SDS_P1;SDS_P2;PMS_P1;PMS_P2;Temp;Humidity;BMP_temperature;BMP_pressure;BME280_temperature;BME280_humidity;BME280_pressure;Samples;Min_cycle;Max_cycle;Signal;HPM_P1;HPM_P2
2023/03/24 00:00:12;;;;;;;13.68;8.27;;;;;;;;;;5017108;28;20049;-75
2023/03/24 00:02:40;;;;;;;15.85;8.25;;;;;;;;;;5026962;28;20055;-76
2023/03/24 00:05:17;;;;;;;17.48;8.65;;;;;;;;;;5024877;28;20064;-76
2023/03/24 00:07:43;;;;;;;13.98;8.40;;;;;;;;;;5047666;28;20500;-76
2023/03/24 00:10:14;;;;;;;16.77;8.52;;;;;;;;;;5025748;28;20059;-76
2023/03/24 00:12:41;;;;;;;14.25;8.43;;;;;;;;;;5032933;28;20492;-75
2023/03/24 00:15:09;;;;;;;15.35;9.20;;;;;;;;;;5043641;28;20444;-75
2023/03/24 00:17:35;;;;;;;17.85;9.70;;;;;;;;;;5023812;28;20095;-75
2023/03/24 00:20:06;;;;;;;15.43;7.82;;;;;;;;;;5045133;28;20036;-76
2023/03/24 00:22:33;;;;;;;17.60;9.45;;;;;;;;;;5022716;28;20056;-76
2023/03/24 00:24:59;;;;;;;16.98;8.25;;;;;;;;;;5033790;28;20128;-76
2023/03/24 00:27:29;;;;;;;15.40;9.18;;;;;;;;;;5021055;28;20124;-76
2023/03/24 00:29:57;;;;;;;13.15;7.65;;;;;;;;;;5022234;28;20057;-76
2023/03/24 00:32:24;;;;;;;15.10;8.50;;;;;;;;;;5026738;28;20048;-76
2023/03/24 00:34:51;;;;;;;21.17;8.98;;;;;;;;;;5041007;28;20048;-76
2023/03/24 00:37:17;;;;;;;15.98;9.18;;;;;;;;;;5019169;28;20085;-76
2023/03/24 00:39:43;;;;;;;14.50;7.03;;;;;;;;;;5042169;28;20069;-76
2023/03/24 00:42:09;;;;;;;12.02;8.30;;;;;;;;;;5038348;28;20041;-75
2023/03/24 00:44:36;;;;;;;15.57;8.45;;;;;;;;;;5033025;28;20040;-75
2023/03/24 00:47:02;;;;;;;13.38;8.38;;;;;;;;;;5039045;28;20049;-75
2023/03/24 00:49:41;;;;;;;15.50;8.57;;;;;;;;;;5030311;28;20060;-76
2023/03/24 00:52:11;;;;;;;17.35;8.43;;;;;;;;;;5023723;28;20508;-76
2023/03/24 00:54:37;;;;;;;11.20;7.53;;;;;;;;;;5027185;28;20060;-76
2023/03/24 00:57:04;;;;;;;14.57;8.80;;;;;;;;;;5033096;28;20056;-76
2023/03/24 00:59:30;;;;;;;13.90;7.40;;;;;;;;;;5011427;28;20060;-76
2023/03/24 01:01:56;;;;;;;14.25;7.57;;;;;;;;;;5040599;28;20037;-76
2023/03/24 01:04:25;;;;;;;11.05;7.70;;;;;;;;;;5015228;28;20053;-76
2023/03/24 01:06:51;;;;;;;12.65;7.82;;;;;;;;;;5019098;28;20056;-76
2023/03/24 01:09:20;;;;;;;12.02;6.93;;;;;;;;;;5022751;28;20215;-76
2023/03/24 01:11:46;;;;;;;13.32;7.75;;;;;;;;;;5027045;28;20171;-76
2023/03/24 01:14:12;;;;;;;13.45;7.25;;;;;;;;;;5043559;28;20045;-76
2023/03/24 01:16:38;;;;;;;14.02;8.20;;;;;;;;;;5040184;28;20041;-76
2023/03/24 01:19:05;;;;;;;10.43;6.55;;;;;;;;;;5029581;28;20191;-76
2023/03/24 01:21:33;;;;;;;12.00;7.63;;;;;;;;;;5036182;28;20038;-76
2023/03/24 01:24:00;;;;;;;11.32;7.28;;;;;;;;;;5045349;28;20501;-75
2023/03/24 01:26:27;;;;;;;11.75;7.38;;;;;;;;;;5023918;28;20045;-76
2023/03/24 01:28:53;;;;;;;14.20;7.50;;;;;;;;;;5017410;28;20049;-76
2023/03/24 01:31:19;;;;;;;10.80;8.48;;;;;;;;;;5037379;28;20516;-76
2023/03/24 01:33:45;;;;;;;13.40;7.28;;;;;;;;;;5037048;28;20396;-76
2023/03/24 01:36:11;;;;;;;11.93;7.75;;;;;;;;;;5025581;28;20549;-76
2023/03/24 01:38:38;;;;;;;16.42;8.73;;;;;;;;;;5019594;28;20055;-76
2023/03/24 01:41:05;;;;;;;15.65;8.65;;;;;;;;;;5034046;28;20068;-76
2023/03/24 01:43:32;;;;;;;13.45;7.95;;;;;;;;;;5047810;28;20075;-76
2023/03/24 01:46:05;;;;;;;14.27;8.07;;;;;;;;;;5018357;28;20133;-76
2023/03/24 01:48:40;;;;;;;12.57;8.55;;;;;;;;;;5018966;28;20122;-76
2023/03/24 01:51:10;;;;;;;14.70;9.55;;;;;;;;;;5018749;28;20056;-76
2023/03/24 01:53:38;;;;;;;13.55;9.55;;;;;;;;;;5041870;28;20111;-75
2023/03/24 01:56:05;;;;;;;14.98;9.57;;;;;;;;;;5044514;28;20048;-76
2023/03/24 01:58:32;;;;;;;11.10;6.47;;;;;;;;;;5051596;28;20045;-76
2023/03/24 02:00:58;;;;;;;12.00;8.48;;;;;;;;;;5023752;28;20385;-76
2023/03/24 02:03:25;;;;;;;11.90;9.13;;;;;;;;;;5029539;28;20873;-76
2023/03/24 02:05:52;;;;;;;16.42;8.63;;;;;;;;;;5021280;28;20052;-76
2023/03/24 02:08:35;;;;;;;12.20;8.82;;;;;;;;;;5040005;28;20049;-76
2023/03/24 02:11:01;;;;;;;19.27;10.37;;;;;;;;;;5026771;28;20050;-76
2023/03/24 02:13:27;;;;;;;16.75;9.05;;;;;;;;;;5015906;28;20559;-76
2023/03/24 02:15:57;;;;;;;15.80;9.27;;;;;;;;;;5018108;28;20057;-76
2023/03/24 02:18:44;;;;;;;14.23;8.48;;;;;;;;;;5026873;28;20478;-76
2023/03/24 02:21:20;;;;;;;21.40;6.72;;;;;;;;;;5036316;28;20231;-76
2023/03/24 02:23:55;;;;;;;12.50;4.93;;;;;;;;;;5014389;28;20103;-76
2023/03/24 02:26:54;;;;;;;18.08;5.38;;;;;;;;;;5031805;28;20676;-76
2023/03/24 02:29:20;;;;;;;24.20;6.47;;;;;;;;;;4996459;28;20535;-76
2023/03/24 02:31:49;;;;;;;19.73;5.30;;;;;;;;;;5030574;28;20037;-76
2023/03/24 02:34:24;;;;;;;11.38;4.57;;;;;;;;;;5023643;28;20045;-75
2023/03/24 02:36:50;;;;;;;14.95;4.82;;;;;;;;;;5017087;28;20041;-75
2023/03/24 02:39:16;;;;;;;13.07;4.00;;;;;;;;;;5055196;28;20052;-76
2023/03/24 02:41:48;;;;;;;14.43;4.45;;;;;;;;;;5014352;28;20171;-76
2023/03/24 02:44:30;;;;;;;12.02;4.20;;;;;;;;;;5025896;28;20046;-75
2023/03/24 02:47:00;;;;;;;10.13;4.10;;;;;;;;;;5037705;28;20067;-76
2023/03/24 02:49:31;;;;;;;17.42;4.38;;;;;;;;;;5016182;28;20149;-76
2023/03/24 02:52:04;;;;;;;16.15;4.22;;;;;;;;;;5018031;28;20048;-76
2023/03/24 02:54:42;;;;;;;18.15;4.45;;;;;;;;;;5046725;28;20060;-76
2023/03/24 02:57:12;;;;;;;17.60;4.45;;;;;;;;;;5019075;28;20053;-76
2023/03/24 02:59:43;;;;;;;13.15;3.88;;;;;;;;;;5032473;28;20053;-76
2023/03/24 03:02:12;;;;;;;12.00;3.28;;;;;;;;;;5035297;28;20091;-76
2023/03/24 03:04:40;;;;;;;13.55;4.53;;;;;;;;;;5028763;28;20393;-76
2023/03/24 03:07:08;;;;;;;17.08;3.58;;;;;;;;;;5024729;28;20467;-76
2023/03/24 03:09:37;;;;;;;10.43;3.22;;;;;;;;;;5022404;28;20056;-75
2023/03/24 03:12:04;;;;;;;10.35;2.88;;;;;;;;;;5029102;28;20049;-76
2023/03/24 03:14:34;;;;;;;11.90;3.20;;;;;;;;;;5038569;28;20508;-76
2023/03/24 03:17:07;;;;;;;13.73;4.18;;;;;;;;;;5022677;28;20071;-76
2023/03/24 03:19:37;;;;;;;14.87;3.33;;;;;;;;;;5030848;28;20045;-76
2023/03/24 03:22:04;;;;;;;13.95;3.53;;;;;;;;;;5020361;28;20823;-76
2023/03/24 03:24:33;;;;;;;12.63;4.43;;;;;;;;;;5020869;28;20052;-76
2023/03/24 03:27:04;;;;;;;15.90;4.05;;;;;;;;;;5017618;28;20045;-76
2023/03/24 03:29:33;;;;;;;17.77;4.28;;;;;;;;;;5027723;28;20041;-77
2023/03/24 03:32:06;;;;;;;18.45;4.13;;;;;;;;;;5037236;28;20049;-76
2023/03/24 03:34:44;;;;;;;12.52;4.03;;;;;;;;;;5037874;28;20045;-76
2023/03/24 03:37:22;;;;;;;13.95;4.00;;;;;;;;;;5016816;28;20978;-76
2023/03/24 03:39:52;;;;;;;13.07;4.00;;;;;;;;;;5041400;28;20131;-76
2023/03/24 03:42:18;;;;;;;15.10;4.00;;;;;;;;;;5040381;28;20567;-76
2023/03/24 03:44:45;;;;;;;16.42;4.18;;;;;;;;;;5030112;28;20497;-76
2023/03/24 03:47:11;;;;;;;18.27;4.35;;;;;;;;;;5040306;28;20087;-76
2023/03/24 03:49:37;;;;;;;14.90;3.80;;;;;;;;;;5023606;28;20045;-76
2023/03/24 03:52:04;;;;;;;16.98;4.57;;;;;;;;;;5046942;28;20437;-75
2023/03/24 03:54:31;;;;;;;18.30;4.18;;;;;;;;;;5021365;28;20511;-75
2023/03/24 03:56:57;;;;;;;17.23;4.55;;;;;;;;;;5013949;28;20444;-75
2023/03/24 03:59:25;;;;;;;12.45;3.85;;;;;;;;;;5018681;28;20183;-75
2023/03/24 04:01:51;;;;;;;19.13;4.60;;;;;;;;;;5048574;28;20045;-76
2023/03/24 04:04:20;;;;;;;11.02;4.10;;;;;;;;;;5045672;28;20072;-76
2023/03/24 04:06:46;;;;;;;17.02;4.05;;;;;;;;;;5020661;28;20045;-76
2023/03/24 04:09:13;;;;;;;16.25;4.88;;;;;;;;;;5036402;28;20053;-75
2023/03/24 04:11:51;;;;;;;14.88;4.07;;;;;;;;;;5025025;28;20140;-76
2023/03/24 04:14:36;;;;;;;17.23;3.90;;;;;;;;;;5040907;28;20049;-75
2023/03/24 04:17:02;;;;;;;20.20;4.93;;;;;;;;;;5034008;28;20076;-75
2023/03/24 04:19:47;;;;;;;18.83;4.38;;;;;;;;;;5017227;28;20050;-76
2023/03/24 04:22:22;;;;;;;15.93;4.32;;;;;;;;;;5046537;28;20396;-75
2023/03/24 04:24:54;;;;;;;13.52;4.35;;;;;;;;;;5038229;28;20128;-75
2023/03/24 04:27:37;;;;;;;17.25;4.38;;;;;;;;;;5036885;28;20544;-75
2023/03/24 04:30:16;;;;;;;17.92;4.50;;;;;;;;;;5027570;28;20043;-75
2023/03/24 04:32:51;;;;;;;12.27;3.63;;;;;;;;;;5032595;28;20045;-75
2023/03/24 04:35:39;;;;;;;22.25;4.85;;;;;;;;;;5017374;28;20114;-75
2023/03/24 04:38:17;;;;;;;14.60;3.92;;;;;;;;;;5018161;28;20069;-76
2023/03/24 04:40:44;;;;;;;19.50;5.25;;;;;;;;;;5015378;28;20481;-76
2023/03/24 04:43:13;;;;;;;18.50;5.20;;;;;;;;;;5029177;28;20064;-75
2023/03/24 04:45:40;;;;;;;17.95;4.43;;;;;;;;;;5041291;28;20366;-75
2023/03/24 04:48:07;;;;;;;20.13;4.22;;;;;;;;;;5027898;28;20037;-75
2023/03/24 04:50:41;;;;;;;19.42;4.80;;;;;;;;;;5036415;28;20124;-75
2023/03/24 04:53:08;;;;;;;13.82;4.28;;;;;;;;;;5043983;28;20055;-75
2023/03/24 04:55:40;;;;;;;20.45;4.63;;;;;;;;;;5040842;28;20049;-76
2023/03/24 04:58:06;;;;;;;18.35;4.22;;;;;;;;;;5021067;28;20049;-75
2023/03/24 05:00:32;;;;;;;12.43;3.92;;;;;;;;;;5026980;28;20566;-76
2023/03/24 05:02:58;;;;;;;11.15;3.80;;;;;;;;;;5014420;28;20501;-75
2023/03/24 05:05:24;;;;;;;15.88;4.30;;;;;;;;;;5020418;28;20033;-76
2023/03/24 05:07:50;;;;;;;14.10;4.20;;;;;;;;;;5042969;28;20042;-75
2023/03/24 05:10:18;;;;;;;22.75;5.18;;;;;;;;;;5020945;28;20374;-75
2023/03/24 05:12:44;;;;;;;16.20;4.72;;;;;;;;;;5027831;28;20061;-75
2023/03/24 05:15:10;;;;;;;22.08;4.72;;;;;;;;;;5014293;28;20051;-75
2023/03/24 05:17:36;;;;;;;14.43;3.35;;;;;;;;;;5026753;28;20132;-75
2023/03/24 05:20:06;;;;;;;21.17;4.80;;;;;;;;;;5019883;28;20084;-76
2023/03/24 05:22:32;;;;;;;26.45;5.28;;;;;;;;;;5044767;28;20041;-75
2023/03/24 05:24:58;;;;;;;20.15;4.13;;;;;;;;;;5045501;28;20527;-75
2023/03/24 05:27:24;;;;;;;14.60;4.15;;;;;;;;;;5034295;28;20077;-75
2023/03/24 05:29:50;;;;;;;18.73;3.95;;;;;;;;;;5021005;28;20059;-75
2023/03/24 05:32:16;;;;;;;22.65;5.03;;;;;;;;;;5026846;28;20408;-76
2023/03/24 05:34:42;;;;;;;13.60;4.20;;;;;;;;;;5019322;28;20050;-76
2023/03/24 05:37:11;;;;;;;18.23;4.00;;;;;;;;;;5026884;28;20132;-75
2023/03/24 05:39:37;;;;;;;19.40;4.15;;;;;;;;;;5012582;28;20049;-75
2023/03/24 05:42:03;;;;;;;20.88;5.15;;;;;;;;;;5023826;28;20444;-75
2023/03/24 05:44:30;;;;;;;21.63;4.55;;;;;;;;;;5056302;28;20095;-75
2023/03/24 05:46:56;;;;;;;13.95;4.32;;;;;;;;;;5046818;28;20110;-75
2023/03/24 05:49:22;;;;;;;15.52;4.25;;;;;;;;;;5021796;28;20079;-75
2023/03/24 05:51:48;;;;;;;20.70;4.13;;;;;;;;;;5024988;28;20068;-75
2023/03/24 05:54:14;;;;;;;12.10;4.40;;;;;;;;;;5021313;28;20092;-75
2023/03/24 05:56:40;;;;;;;15.57;4.25;;;;;;;;;;5048390;28;20536;-75
2023/03/24 05:59:06;;;;;;;11.52;3.90;;;;;;;;;;5050242;28;20040;-75
2023/03/24 06:01:32;;;;;;;14.00;3.92;;;;;;;;;;5027089;28;20052;-75
2023/03/24 06:03:58;;;;;;;24.35;3.85;;;;;;;;;;5042563;28;20041;-75
2023/03/24 06:06:25;;;;;;;18.73;5.57;;;;;;;;;;5016930;28;20045;-75
2023/03/24 06:08:53;;;;;;;20.20;4.53;;;;;;;;;;5042248;28;20037;-75
2023/03/24 06:11:20;;;;;;;19.05;4.15;;;;;;;;;;5021994;28;20053;-75
2023/03/24 06:13:46;;;;;;;21.70;4.38;;;;;;;;;;5025180;28;20033;-75
2023/03/24 06:16:12;;;;;;;18.50;4.13;;;;;;;;;;5014368;28;20190;-75
2023/03/24 06:18:41;;;;;;;15.40;4.20;;;;;;;;;;5019435;28;21791;-75
2023/03/24 06:21:07;;;;;;;21.23;4.60;;;;;;;;;;5016379;28;20136;-75
2023/03/24 06:23:33;;;;;;;24.85;5.85;;;;;;;;;;5023861;28;20036;-75
2023/03/24 06:26:02;;;;;;;25.17;6.78;;;;;;;;;;5034325;28;20041;-75
2023/03/24 06:28:29;;;;;;;18.48;4.60;;;;;;;;;;5032572;28;20033;-75
2023/03/24 06:30:57;;;;;;;18.70;4.53;;;;;;;;;;5030709;28;20128;-75
2023/03/24 06:33:24;;;;;;;17.55;4.43;;;;;;;;;;5034062;28;20049;-75
2023/03/24 06:35:51;;;;;;;22.73;5.22;;;;;;;;;;5017033;28;20056;-75
2023/03/24 06:38:17;;;;;;;20.67;4.68;;;;;;;;;;5036400;28;20055;-75
2023/03/24 06:40:43;;;;;;;22.27;5.13;;;;;;;;;;5040118;28;20441;-76
2023/03/24 06:43:09;;;;;;;20.15;4.53;;;;;;;;;;5020034;28;20041;-75
2023/03/24 06:45:38;;;;;;;18.58;4.22;;;;;;;;;;5027736;28;20461;-74
2023/03/24 06:48:04;;;;;;;18.70;4.97;;;;;;;;;;5026930;28;20049;-76
2023/03/24 06:50:34;;;;;;;19.05;4.85;;;;;;;;;;5026268;28;20492;-75
2023/03/24 06:53:01;;;;;;;16.77;4.55;;;;;;;;;;5041542;28;20037;-74
2023/03/24 06:55:27;;;;;;;23.67;5.50;;;;;;;;;;5021208;28;20061;-75
2023/03/24 06:57:53;;;;;;;23.00;5.30;;;;;;;;;;5034768;28;20045;-75
2023/03/24 07:00:19;;;;;;;27.70;5.60;;;;;;;;;;5034606;28;20048;-75
2023/03/24 07:02:46;;;;;;;26.85;5.60;;;;;;;;;;5014641;28;20033;-75
2023/03/24 07:05:12;;;;;;;20.90;4.55;;;;;;;;;;5036556;28;20073;-75
2023/03/24 07:07:40;;;;;;;18.98;4.97;;;;;;;;;;5023082;28;20493;-75
2023/03/24 07:10:06;;;;;;;25.92;5.78;;;;;;;;;;5037879;28;20048;-75
2023/03/24 07:12:32;;;;;;;22.98;5.28;;;;;;;;;;5024418;28;20087;-75
2023/03/24 07:14:58;;;;;;;18.33;4.68;;;;;;;;;;5034069;28;20052;-75
2023/03/24 07:17:24;;;;;;;25.83;5.28;;;;;;;;;;5018248;28;20247;-75
2023/03/24 07:19:50;;;;;;;24.90;6.03;;;;;;;;;;5042227;28;20562;-75
2023/03/24 07:22:17;;;;;;;21.33;4.88;;;;;;;;;;5025130;28;20135;-75
2023/03/24 07:24:42;;;;;;;26.67;5.50;;;;;;;;;;5037366;28;20072;-75
2023/03/24 07:27:09;;;;;;;22.33;4.78;;;;;;;;;;5018130;28;20497;-75
2023/03/24 07:29:35;;;;;;;26.73;5.82;;;;;;;;;;5040818;28;20538;-75
2023/03/24 07:32:02;;;;;;;22.83;5.15;;;;;;;;;;5034453;28;20501;-75
2023/03/24 07:34:28;;;;;;;24.95;6.30;;;;;;;;;;5022198;28;20060;-75
2023/03/24 07:36:55;;;;;;;28.35;6.35;;;;;;;;;;5017569;28;20037;-75
2023/03/24 07:39:21;;;;;;;25.88;5.70;;;;;;;;;;5038168;28;20802;-75
2023/03/24 07:41:47;;;;;;;22.17;5.60;;;;;;;;;;5032969;28;20168;-75
2023/03/24 07:44:13;;;;;;;23.30;5.30;;;;;;;;;;5034698;28;20113;-75
2023/03/24 07:46:40;;;;;;;30.75;6.88;;;;;;;;;;5040630;28;20095;-75
2023/03/24 07:49:06;;;;;;;23.48;6.22;;;;;;;;;;5031441;28;20405;-75
2023/03/24 07:51:32;;;;;;;27.80;5.28;;;;;;;;;;5042815;28;20112;-75
2023/03/24 07:53:58;;;;;;;26.08;5.70;;;;;;;;;;5026163;28;20797;-75
2023/03/24 07:56:24;;;;;;;21.38;4.75;;;;;;;;;;5022844;28;20452;-75
2023/03/24 07:58:51;;;;;;;20.20;5.05;;;;;;;;;;5034762;28;20124;-75
2023/03/24 08:01:17;;;;;;;26.55;5.10;;;;;;;;;;5033315;28;20049;-75
2023/03/24 08:03:43;;;;;;;26.42;5.63;;;;;;;;;;5015477;28;20323;-75
2023/03/24 08:06:09;;;;;;;29.00;6.55;;;;;;;;;;5014914;28;20485;-75
2023/03/24 08:08:36;;;;;;;27.05;6.13;;;;;;;;;;5040864;28;20041;-75
2023/03/24 08:11:03;;;;;;;19.10;5.13;;;;;;;;;;5016177;28;20041;-75
2023/03/24 08:13:29;;;;;;;21.75;5.45;;;;;;;;;;5020966;28;20041;-75
2023/03/24 08:15:55;;;;;;;26.75;6.47;;;;;;;;;;5030008;28;20087;-75
2023/03/24 08:18:23;;;;;;;29.13;5.97;;;;;;;;;;5032504;28;20091;-75
2023/03/24 08:20:49;;;;;;;22.13;5.80;;;;;;;;;;5045754;28;20041;-75
2023/03/24 08:23:16;;;;;;;31.85;6.47;;;;;;;;;;5037562;28;20132;-75
2023/03/24 08:25:43;;;;;;;26.13;5.35;;;;;;;;;;5032482;28;20086;-75
2023/03/24 08:28:09;;;;;;;21.88;5.20;;;;;;;;;;5031486;28;20084;-75
2023/03/24 08:30:35;;;;;;;25.15;6.88;;;;;;;;;;5037254;28;20037;-75
2023/03/24 08:33:02;;;;;;;26.80;5.68;;;;;;;;;;5039027;28;20539;-75
2023/03/24 08:35:30;;;;;;;26.83;6.22;;;;;;;;;;5047267;28;20041;-75
2023/03/24 08:37:58;;;;;;;23.90;5.90;;;;;;;;;;5019642;28;20432;-75
2023/03/24 08:40:24;;;;;;;25.92;5.82;;;;;;;;;;5035488;28;20053;-75
2023/03/24 08:42:52;;;;;;;23.98;5.38;;;;;;;;;;5023925;28;20041;-75
2023/03/24 08:45:19;;;;;;;28.25;5.78;;;;;;;;;;5017060;28;20084;-75
2023/03/24 08:47:46;;;;;;;21.77;5.53;;;;;;;;;;5034945;28;20123;-75
2023/03/24 08:50:13;;;;;;;29.35;6.90;;;;;;;;;;5038767;28;20049;-75
2023/03/24 08:52:40;;;;;;;24.17;5.75;;;;;;;;;;5014621;28;20056;-75
2023/03/24 08:55:08;;;;;;;16.83;5.20;;;;;;;;;;5018426;28;20089;-75
2023/03/24 08:57:37;;;;;;;24.90;5.15;;;;;;;;;;5040567;28;20140;-75
2023/03/24 09:00:10;;;;;;;23.50;5.60;;;;;;;;;;5012857;28;20060;-75
2023/03/24 09:02:36;;;;;;;21.77;5.40;;;;;;;;;;5023024;28;20632;-75
2023/03/24 09:05:03;;;;;;;18.30;5.70;;;;;;;;;;5023686;28;20095;-75
2023/03/24 09:07:29;;;;;;;16.15;4.90;;;;;;;;;;5035873;28;20087;-75
2023/03/24 09:09:55;;;;;;;29.08;5.85;;;;;;;;;;5017342;28;20045;-75
2023/03/24 09:12:24;;;;;;;21.58;5.43;;;;;;;;;;5032639;28;20037;-75
2023/03/24 09:14:50;;;;;;;25.20;6.03;;;;;;;;;;5013738;28;20136;-75
2023/03/24 09:17:17;;;;;;;29.85;6.22;;;;;;;;;;5023770;28;20044;-75
2023/03/24 09:19:43;;;;;;;27.15;6.10;;;;;;;;;;5032505;28;20045;-75
2023/03/24 09:22:09;;;;;;;24.30;4.93;;;;;;;;;;5040854;28;20040;-75
2023/03/24 09:24:36;;;;;;;20.73;5.97;;;;;;;;;;5034229;28;20041;-76
2023/03/24 09:27:02;;;;;;;25.05;5.45;;;;;;;;;;5027248;28;20041;-76
2023/03/24 09:29:28;;;;;;;16.92;3.97;;;;;;;;;;5028175;28;20056;-75
2023/03/24 09:31:55;;;;;;;20.52;4.63;;;;;;;;;;5024691;28;20037;-75
2023/03/24 09:34:21;;;;;;;18.33;5.30;;;;;;;;;;5036970;28;20119;-75
2023/03/24 09:36:48;;;;;;;29.30;6.03;;;;;;;;;;5041972;28;20049;-75
2023/03/24 09:39:14;;;;;;;21.17;5.13;;;;;;;;;;5024316;28;20549;-76
2023/03/24 09:41:43;;;;;;;18.52;4.90;;;;;;;;;;5029635;28;20485;-76
2023/03/24 09:44:15;;;;;;;20.67;4.53;;;;;;;;;;5041558;28;20041;-75
2023/03/24 09:46:46;;;;;;;21.85;4.80;;;;;;;;;;5039386;28;20041;-75
2023/03/24 09:49:15;;;;;;;28.33;5.57;;;;;;;;;;5034855;28;20048;-76
2023/03/24 09:51:43;;;;;;;19.60;4.53;;;;;;;;;;5043989;28;20499;-75
2023/03/24 09:54:13;;;;;;;20.17;4.65;;;;;;;;;;5035694;28;20041;-75
2023/03/24 09:56:42;;;;;;;25.35;5.68;;;;;;;;;;5023952;28;20054;-75
2023/03/24 09:59:11;;;;;;;17.48;4.95;;;;;;;;;;5032066;28;20124;-76
2023/03/24 10:01:37;;;;;;;30.77;6.07;;;;;;;;;;5034036;28;20049;-76
2023/03/24 10:04:04;;;;;;;25.27;5.85;;;;;;;;;;5021286;28;20053;-76
2023/03/24 10:06:52;;;;;;;24.45;5.50;;;;;;;;;;5020675;28;20056;-76
2023/03/24 10:09:27;;;;;;;24.98;5.60;;;;;;;;;;5043316;28;20049;-76
2023/03/24 10:11:53;;;;;;;30.02;6.68;;;;;;;;;;5033624;28;20116;-76
2023/03/24 10:14:19;;;;;;;19.17;5.03;;;;;;;;;;5017005;28;20179;-76
2023/03/24 10:16:57;;;;;;;23.88;5.07;;;;;;;;;;5037383;28;20037;-76
2023/03/24 10:19:35;;;;;;;18.67;4.43;;;;;;;;;;5018392;28;20080;-76
2023/03/24 10:22:17;;;;;;;20.83;5.22;;;;;;;;;;5044933;28;20037;-75
2023/03/24 10:24:58;;;;;;;22.38;5.65;;;;;;;;;;5048879;28;20500;-76
2023/03/24 10:27:28;;;;;;;27.48;6.22;;;;;;;;;;5018186;28;20053;-76
2023/03/24 10:29:57;;;;;;;24.33;4.82;;;;;;;;;;5017978;28;20091;-76
2023/03/24 10:32:25;;;;;;;22.02;5.22;;;;;;;;;;5019591;28;20053;-76
2023/03/24 10:34:54;;;;;;;24.13;5.13;;;;;;;;;;5045868;28;20118;-76
2023/03/24 10:37:20;;;;;;;23.58;5.63;;;;;;;;;;5033806;28;20046;-76
2023/03/24 10:39:46;;;;;;;25.63;5.95;;;;;;;;;;5044768;28;20511;-76
2023/03/24 10:42:15;;;;;;;25.50;5.68;;;;;;;;;;5036539;28;20159;-75
2023/03/24 10:44:42;;;;;;;15.48;4.47;;;;;;;;;;5034310;28;20037;-75
2023/03/24 10:47:11;;;;;;;20.40;4.85;;;;;;;;;;5036084;28;20588;-75
2023/03/24 10:49:37;;;;;;;27.73;6.20;;;;;;;;;;5027129;28;20115;-76
2023/03/24 10:52:08;;;;;;;30.48;5.20;;;;;;;;;;5039611;28;20451;-75
2023/03/24 10:54:34;;;;;;;24.95;5.72;;;;;;;;;;5012499;28;20068;-75
2023/03/24 10:57:05;;;;;;;18.40;4.97;;;;;;;;;;5014755;28;20049;-75
2023/03/24 10:59:35;;;;;;;30.08;6.43;;;;;;;;;;5019465;28;20337;-76
2023/03/24 11:02:10;;;;;;;26.60;6.15;;;;;;;;;;5013244;28;20038;-75
2023/03/24 11:04:50;;;;;;;17.23;4.70;;;;;;;;;;5013828;28;20041;-76
2023/03/24 11:07:19;;;;;;;20.30;4.35;;;;;;;;;;5014717;28;20041;-76
2023/03/24 11:09:47;;;;;;;26.50;6.03;;;;;;;;;;5018222;28;20124;-75
2023/03/24 11:12:25;;;;;;;20.90;5.50;;;;;;;;;;5012914;28;20048;-75
2023/03/24 11:14:59;;;;;;;26.25;5.22;;;;;;;;;;5025802;28;20045;-76
2023/03/24 11:17:26;;;;;;;17.05;4.85;;;;;;;;;;5017212;28;20053;-76
2023/03/24 11:19:53;;;;;;;32.80;6.03;;;;;;;;;;5017088;28;20582;-76
2023/03/24 11:22:20;;;;;;;22.50;4.93;;;;;;;;;;5017622;28;20045;-76
2023/03/24 11:24:49;;;;;;;22.30;4.88;;;;;;;;;;5017754;28;20532;-75
2023/03/24 11:27:17;;;;;;;17.75;4.80;;;;;;;;;;5010609;28;20049;-75
2023/03/24 11:29:43;;;;;;;25.20;5.13;;;;;;;;;;5013891;28;20494;-76
2023/03/24 11:32:13;;;;;;;18.63;4.95;;;;;;;;;;5018275;28;20121;-76
2023/03/24 11:34:44;;;;;;;17.75;4.55;;;;;;;;;;5018423;28;20567;-75
2023/03/24 11:37:15;;;;;;;20.23;4.70;;;;;;;;;;5015400;28;20458;-75
2023/03/24 11:39:43;;;;;;;21.55;5.00;;;;;;;;;;5021538;28;20096;-76
2023/03/24 11:42:11;;;;;;;25.02;5.20;;;;;;;;;;5017838;28;20041;-76
2023/03/24 11:44:37;;;;;;;24.35;5.07;;;;;;;;;;5016901;28;20095;-75
2023/03/24 11:47:11;;;;;;;11.52;3.83;;;;;;;;;;5018019;28;20037;-75
2023/03/24 11:49:44;;;;;;;21.42;5.45;;;;;;;;;;5019964;28;20045;-75
2023/03/24 11:52:31;;;;;;;16.02;3.78;;;;;;;;;;5016007;28;20099;-75
2023/03/24 11:54:57;;;;;;;19.13;4.53;;;;;;;;;;5025972;28;20091;-75
2023/03/24 11:57:49;;;;;;;25.85;4.70;;;;;;;;;;5034252;28;20056;-75
2023/03/24 12:00:16;;;;;;;25.15;5.18;;;;;;;;;;5018674;28;20052;-75
2023/03/24 12:02:48;;;;;;;22.92;5.07;;;;;;;;;;5021002;28;20053;-75
2023/03/24 12:05:37;;;;;;;18.67;5.00;;;;;;;;;;5023644;28;20041;-75
2023/03/24 12:08:12;;;;;;;19.42;4.97;;;;;;;;;;5035620;28;20049;-77
2023/03/24 12:10:57;;;;;;;18.67;3.90;;;;;;;;;;5040441;28;20033;-77
2023/03/24 12:13:32;;;;;;;24.20;4.95;;;;;;;;;;5042222;28;20236;-77
2023/03/24 12:16:01;;;;;;;20.25;4.55;;;;;;;;;;5016976;28;20458;-77
2023/03/24 12:18:36;;;;;;;23.95;4.55;;;;;;;;;;5033026;28;20039;-76
2023/03/24 12:21:08;;;;;;;21.23;4.80;;;;;;;;;;5035277;28;20052;-75
2023/03/24 12:23:55;;;;;;;20.33;4.00;;;;;;;;;;5021848;28;20049;-76
2023/03/24 12:26:28;;;;;;;25.95;5.55;;;;;;;;;;5015816;28;20052;-76
2023/03/24 12:29:13;;;;;;;21.95;4.63;;;;;;;;;;5016828;28;20496;-76
2023/03/24 12:31:58;;;;;;;17.92;4.70;;;;;;;;;;5015543;28;20052;-75
2023/03/24 12:34:26;;;;;;;21.25;5.78;;;;;;;;;;5033738;28;20044;-76
2023/03/24 12:37:07;;;;;;;20.83;4.72;;;;;;;;;;5037804;28;20508;-76
2023/03/24 12:39:43;;;;;;;21.70;4.60;;;;;;;;;;5036739;28;20445;-76
2023/03/24 12:42:13;;;;;;;18.48;4.75;;;;;;;;;;5026984;28;20045;-76
2023/03/24 12:44:48;;;;;;;20.77;5.07;;;;;;;;;;5027946;28;20064;-76
2023/03/24 12:47:34;;;;;;;24.55;5.15;;;;;;;;;;5036229;28;20041;-75
2023/03/24 12:50:24;;;;;;;23.75;4.35;;;;;;;;;;5032590;28;20033;-75
2023/03/24 12:52:50;;;;;;;29.08;5.85;;;;;;;;;;5044822;28;20510;-76
2023/03/24 12:55:18;;;;;;;24.13;4.97;;;;;;;;;;5025987;28;20053;-76
2023/03/24 12:57:53;;;;;;;22.10;5.55;;;;;;;;;;5021617;28;20104;-75
2023/03/24 13:00:23;;;;;;;21.73;5.40;;;;;;;;;;5023353;28;20053;-76
2023/03/24 13:03:01;;;;;;;19.20;5.45;;;;;;;;;;5031725;28;20536;-76
2023/03/24 13:05:30;;;;;;;22.15;5.28;;;;;;;;;;5016810;28;20057;-76
2023/03/24 13:08:01;;;;;;;21.02;5.03;;;;;;;;;;5021589;28;20060;-76
2023/03/24 13:10:29;;;;;;;20.15;4.97;;;;;;;;;;5031336;28;20057;-75
2023/03/24 13:13:17;;;;;;;24.85;5.70;;;;;;;;;;5026739;28;20041;-75
2023/03/24 13:15:43;;;;;;;24.40;5.00;;;;;;;;;;5034903;28;20051;-76
2023/03/24 13:18:10;;;;;;;21.02;5.70;;;;;;;;;;5046377;28;20041;-76
2023/03/24 13:20:39;;;;;;;18.80;5.15;;;;;;;;;;5017401;28;20045;-75
2023/03/24 13:23:23;;;;;;;15.30;4.38;;;;;;;;;;5030740;28;20044;-75
2023/03/24 13:26:05;;;;;;;20.70;5.32;;;;;;;;;;5021679;28;20053;-76
2023/03/24 13:28:35;;;;;;;16.55;4.90;;;;;;;;;;5042194;28;20049;-76
2023/03/24 13:31:02;;;;;;;15.15;4.28;;;;;;;;;;5019772;28;20049;-76
2023/03/24 13:33:30;;;;;;;23.65;5.25;;;;;;;;;;5029021;28;20127;-76
2023/03/24 13:36:02;;;;;;;21.27;5.70;;;;;;;;;;5026923;28;20405;-76
2023/03/24 13:38:35;;;;;;;22.75;5.07;;;;;;;;;;5037826;28;20056;-76
2023/03/24 13:41:04;;;;;;;22.30;5.90;;;;;;;;;;5030844;28;20489;-76
2023/03/24 13:43:30;;;;;;;19.02;5.93;;;;;;;;;;5037546;28;20121;-76
2023/03/24 13:46:00;;;;;;;17.42;4.45;;;;;;;;;;5041040;28;20138;-75
2023/03/24 13:48:30;;;;;;;17.23;4.82;;;;;;;;;;5049496;28;20045;-76
2023/03/24 13:51:01;;;;;;;17.08;4.47;;;;;;;;;;5044449;28;20044;-75
2023/03/24 13:53:39;;;;;;;17.25;4.60;;;;;;;;;;5020227;28;20049;-76
2023/03/24 13:56:06;;;;;;;17.65;4.10;;;;;;;;;;5030699;28;20088;-76
2023/03/24 13:59:11;;;;;;;22.40;4.72;;;;;;;;;;5048416;28;20045;-76
2023/03/24 14:01:38;;;;;;;15.10;3.88;;;;;;;;;;4954689;28;20553;-75
2023/03/24 14:04:13;;;;;;;15.63;4.20;;;;;;;;;;4939855;28;20050;-76
2023/03/24 14:06:58;;;;;;;16.58;4.18;;;;;;;;;;4995296;28;20089;-76
2023/03/24 14:09:34;;;;;;;16.00;4.85;;;;;;;;;;5028112;28;20049;-76
2023/03/24 14:12:03;;;;;;;14.45;5.28;;;;;;;;;;5034929;28;20460;-76
2023/03/24 14:14:30;;;;;;;13.93;4.45;;;;;;;;;;5014672;28;20477;-76
2023/03/24 14:17:05;;;;;;;11.85;3.90;;;;;;;;;;5038711;28;20970;-75
2023/03/24 14:19:41;;;;;;;16.30;4.28;;;;;;;;;;5034657;28;20046;-76
2023/03/24 14:22:08;;;;;;;13.70;3.92;;;;;;;;;;5049452;28;20057;-75
2023/03/24 14:24:35;;;;;;;13.77;4.00;;;;;;;;;;5018139;28;20037;-75
2023/03/24 14:27:22;;;;;;;12.85;4.13;;;;;;;;;;5035868;28;20162;-75
2023/03/24 14:29:50;;;;;;;18.23;4.45;;;;;;;;;;5038417;28;20049;-75
2023/03/24 14:32:21;;;;;;;14.43;4.20;;;;;;;;;;5030949;28;20132;-75
2023/03/24 14:35:10;;;;;;;14.98;4.43;;;;;;;;;;5036918;28;20053;-75
2023/03/24 14:37:47;;;;;;;13.63;4.13;;;;;;;;;;5028728;28;20048;-75
2023/03/24 14:40:23;;;;;;;14.10;4.65;;;;;;;;;;5020636;28;20127;-75
2023/03/24 14:42:49;;;;;;;15.13;3.95;;;;;;;;;;5038660;28;20040;-75
2023/03/24 14:45:35;;;;;;;12.57;4.20;;;;;;;;;;5034164;28;20049;-74